sensor_id;sensor_type;location;lat;lon;timestamp;P1;durP1;ratioP1;P2;durP2;ratioP2
19251;SDS011;9760;50.944;5.304;2023-08-30T00:00:16;23.10;;;12.30;;
19251;SDS011;9760;50.944;5.304;2023-08-30T00:02:43;20.47;;;12.77;;
19251;SDS011;9760;50.944;5.304;2023-08-30T00:05:09;22.90;;;13.23;;
19251;SDS011;9760;50.944;5.304;2023-08-30T00:07:35;18.13;;;12.83;;
19251;SDS011;9760;50.944;5.304;2023-08-30T00:10:01;19.73;;;13.53;;
19251;SDS011;9760;50.944;5.304;2023-08-30T00:12:27;23.80;;;11.87;;
19251;SDS011;9760;50.944;5.304;2023-08-30T00:14:53;19.80;;;12.83;;
19251;SDS011;9760;50.944;5.304;2023-08-30T00:17:19;16.53;;;12.13;;
19251;SDS011;9760;50.944;5.304;2023-08-30T00:19:45;24.03;;;13.80;;
19251;SDS011;9760;50.944;5.304;2023-08-30T00:22:11;22.27;;;13.37;;
19251;SDS011;9760;50.944;5.304;2023-08-30T00:24:37;20.80;;;13.00;;
19251;SDS011;9760;50.944;5.304;2023-08-30T00:27:03;17.50;;;12.30;;
19251;SDS011;9760;50.944;5.304;2023-08-30T00:29:29;15.97;;;11.90;;
19251;SDS011;9760;50.944;5.304;2023-08-30T00:31:55;25.07;;;12.30;;
19251;SDS011;9760;50.944;5.304;2023-08-30T00:34:21;24.17;;;12.83;;
19251;SDS011;9760;50.944;5.304;2023-08-30T00:36:46;23.20;;;13.70;;
19251;SDS011;9760;50.944;5.304;2023-08-30T00:39:12;23.10;;;12.97;;
19251;SDS011;9760;50.944;5.304;2023-08-30T00:41:38;21.03;;;12.70;;
19251;SDS011;9760;50.944;5.304;2023-08-30T00:44:04;22.93;;;13.27;;
19251;SDS011;9760;50.944;5.304;2023-08-30T00:46:30;19.77;;;12.67;;
19251;SDS011;9760;50.944;5.304;2023-08-30T00:48:57;20.07;;;13.20;;
19251;SDS011;9760;50.944;5.304;2023-08-30T00:51:24;20.83;;;12.93;;
19251;SDS011;9760;50.944;5.304;2023-08-30T00:53:50;19.70;;;12.77;;
19251;SDS011;9760;50.944;5.304;2023-08-30T00:56:16;20.43;;;12.57;;
19251;SDS011;9760;50.944;5.304;2023-08-30T00:58:43;19.07;;;12.83;;
19251;SDS011;9760;50.944;5.304;2023-08-30T01:01:09;20.07;;;12.40;;
19251;SDS011;9760;50.944;5.304;2023-08-30T01:03:34;22.03;;;12.30;;
19251;SDS011;9760;50.944;5.304;2023-08-30T01:06:00;25.13;;;11.90;;
19251;SDS011;9760;50.944;5.304;2023-08-30T01:08:27;20.47;;;12.13;;
19251;SDS011;9760;50.944;5.304;2023-08-30T01:13:44;22.20;;;11.80;;
19251;SDS011;9760;50.944;5.304;2023-08-30T01:16:15;20.40;;;11.50;;
19251;SDS011;9760;50.944;5.304;2023-08-30T01:18:42;23.47;;;11.90;;
19251;SDS011;9760;50.944;5.304;2023-08-30T01:21:09;23.67;;;12.33;;
19251;SDS011;9760;50.944;5.304;2023-08-30T01:23:47;18.00;;;12.07;;
19251;SDS011;9760;50.944;5.304;2023-08-30T01:29:16;23.37;;;12.40;;
19251;SDS011;9760;50.944;5.304;2023-08-30T01:31:43;19.03;;;11.87;;
19251;SDS011;9760;50.944;5.304;2023-08-30T01:34:11;18.67;;;12.07;;
19251;SDS011;9760;50.944;5.304;2023-08-30T01:36:38;16.30;;;11.30;;
19251;SDS011;9760;50.944;5.304;2023-08-30T01:39:07;21.90;;;11.93;;
19251;SDS011;9760;50.944;5.304;2023-08-30T01:41:35;19.57;;;12.70;;
19251;SDS011;9760;50.944;5.304;2023-08-30T01:44:02;20.33;;;12.27;;
19251;SDS011;9760;50.944;5.304;2023-08-30T01:46:31;16.47;;;11.33;;
19251;SDS011;9760;50.944;5.304;2023-08-30T01:48:58;22.50;;;11.23;;
19251;SDS011;9760;50.944;5.304;2023-08-30T01:51:26;17.73;;;12.13;;
19251;SDS011;9760;50.944;5.304;2023-08-30T01:53:53;24.27;;;12.20;;
19251;SDS011;9760;50.944;5.304;2023-08-30T01:56:20;19.30;;;12.30;;
19251;SDS011;9760;50.944;5.304;2023-08-30T01:58:46;19.27;;;11.83;;
19251;SDS011;9760;50.944;5.304;2023-08-30T02:01:12;17.63;;;11.57;;
19251;SDS011;9760;50.944;5.304;2023-08-30T02:03:38;19.43;;;12.03;;
19251;SDS011;9760;50.944;5.304;2023-08-30T02:08:32;21.53;;;12.17;;
19251;SDS011;9760;50.944;5.304;2023-08-30T02:11:07;18.70;;;12.53;;
19251;SDS011;9760;50.944;5.304;2023-08-30T02:13:37;22.23;;;12.03;;
19251;SDS011;9760;50.944;5.304;2023-08-30T02:16:04;18.53;;;12.03;;
19251;SDS011;9760;50.944;5.304;2023-08-30T02:18:31;21.60;;;12.53;;
19251;SDS011;9760;50.944;5.304;2023-08-30T02:20:57;24.20;;;13.67;;
19251;SDS011;9760;50.944;5.304;2023-08-30T02:23:24;19.17;;;12.03;;
19251;SDS011;9760;50.944;5.304;2023-08-30T02:25:50;20.40;;;11.87;;
19251;SDS011;9760;50.944;5.304;2023-08-30T02:28:16;24.10;;;12.03;;
19251;SDS011;9760;50.944;5.304;2023-08-30T02:30:41;16.47;;;11.23;;
19251;SDS011;9760;50.944;5.304;2023-08-30T02:33:07;19.50;;;11.67;;
19251;SDS011;9760;50.944;5.304;2023-08-30T02:35:32;16.73;;;11.63;;
19251;SDS011;9760;50.944;5.304;2023-08-30T02:37:58;17.67;;;11.77;;
19251;SDS011;9760;50.944;5.304;2023-08-30T02:40:24;18.67;;;12.17;;
19251;SDS011;9760;50.944;5.304;2023-08-30T02:42:50;19.90;;;12.20;;
19251;SDS011;9760;50.944;5.304;2023-08-30T02:45:15;18.70;;;11.97;;
19251;SDS011;9760;50.944;5.304;2023-08-30T02:47:41;23.87;;;12.17;;
19251;SDS011;9760;50.944;5.304;2023-08-30T02:50:07;19.47;;;11.97;;
19251;SDS011;9760;50.944;5.304;2023-08-30T02:52:32;25.23;;;12.73;;
19251;SDS011;9760;50.944;5.304;2023-08-30T02:54:58;19.00;;;12.97;;
19251;SDS011;9760;50.944;5.304;2023-08-30T02:57:24;19.97;;;12.60;;
19251;SDS011;9760;50.944;5.304;2023-08-30T02:59:49;22.73;;;12.90;;
19251;SDS011;9760;50.944;5.304;2023-08-30T03:02:15;21.50;;;12.60;;
19251;SDS011;9760;50.944;5.304;2023-08-30T03:04:41;18.83;;;11.93;;
19251;SDS011;9760;50.944;5.304;2023-08-30T03:07:08;21.93;;;13.60;;
19251;SDS011;9760;50.944;5.304;2023-08-30T03:09:33;21.03;;;13.20;;
19251;SDS011;9760;50.944;5.304;2023-08-30T03:11:59;20.23;;;12.97;;
19251;SDS011;9760;50.944;5.304;2023-08-30T03:14:24;26.57;;;14.47;;
19251;SDS011;9760;50.944;5.304;2023-08-30T03:16:50;20.87;;;14.20;;
19251;SDS011;9760;50.944;5.304;2023-08-30T03:19:16;19.60;;;13.30;;
19251;SDS011;9760;50.944;5.304;2023-08-30T03:21:42;27.17;;;14.57;;
19251;SDS011;9760;50.944;5.304;2023-08-30T03:24:08;27.10;;;14.50;;
19251;SDS011;9760;50.944;5.304;2023-08-30T03:26:34;24.53;;;14.00;;
19251;SDS011;9760;50.944;5.304;2023-08-30T03:29:00;20.70;;;13.30;;
19251;SDS011;9760;50.944;5.304;2023-08-30T03:31:25;21.47;;;14.10;;
19251;SDS011;9760;50.944;5.304;2023-08-30T03:33:51;23.47;;;14.77;;
19251;SDS011;9760;50.944;5.304;2023-08-30T03:36:17;24.67;;;14.60;;
19251;SDS011;9760;50.944;5.304;2023-08-30T03:38:43;23.10;;;14.53;;
19251;SDS011;9760;50.944;5.304;2023-08-30T03:41:10;23.50;;;14.67;;
19251;SDS011;9760;50.944;5.304;2023-08-30T03:43:36;27.27;;;15.03;;
19251;SDS011;9760;50.944;5.304;2023-08-30T03:46:02;23.03;;;14.17;;
19251;SDS011;9760;50.944;5.304;2023-08-30T03:48:29;20.77;;;14.43;;
19251;SDS011;9760;50.944;5.304;2023-08-30T03:50:55;25.87;;;14.50;;
19251;SDS011;9760;50.944;5.304;2023-08-30T03:53:22;25.87;;;14.50;;
19251;SDS011;9760;50.944;5.304;2023-08-30T03:55:49;22.03;;;14.63;;
19251;SDS011;9760;50.944;5.304;2023-08-30T03:58:15;29.43;;;14.63;;
19251;SDS011;9760;50.944;5.304;2023-08-30T04:00:41;26.10;;;14.97;;
19251;SDS011;9760;50.944;5.304;2023-08-30T04:03:07;21.40;;;13.73;;
19251;SDS011;9760;50.944;5.304;2023-08-30T04:05:34;29.30;;;15.77;;
19251;SDS011;9760;50.944;5.304;2023-08-30T04:08:03;23.90;;;15.37;;
19251;SDS011;9760;50.944;5.304;2023-08-30T04:10:40;25.90;;;15.40;;
19251;SDS011;9760;50.944;5.304;2023-08-30T04:13:07;22.40;;;14.90;;
19251;SDS011;9760;50.944;5.304;2023-08-30T04:15:37;33.27;;;15.53;;
19251;SDS011;9760;50.944;5.304;2023-08-30T04:18:04;23.43;;;15.27;;
19251;SDS011;9760;50.944;5.304;2023-08-30T04:20:30;28.47;;;16.60;;
19251;SDS011;9760;50.944;5.304;2023-08-30T04:23:00;25.33;;;16.17;;
19251;SDS011;9760;50.944;5.304;2023-08-30T04:25:29;29.17;;;17.17;;
19251;SDS011;9760;50.944;5.304;2023-08-30T04:27:55;30.47;;;17.43;;
19251;SDS011;9760;50.944;5.304;2023-08-30T04:30:21;32.53;;;16.70;;
19251;SDS011;9760;50.944;5.304;2023-08-30T04:32:47;30.70;;;17.93;;
19251;SDS011;9760;50.944;5.304;2023-08-30T04:35:13;35.57;;;18.37;;
19251;SDS011;9760;50.944;5.304;2023-08-30T04:37:38;33.87;;;18.00;;
19251;SDS011;9760;50.944;5.304;2023-08-30T04:40:05;28.77;;;18.03;;
19251;SDS011;9760;50.944;5.304;2023-08-30T04:42:32;35.10;;;18.80;;
19251;SDS011;9760;50.944;5.304;2023-08-30T04:44:58;35.43;;;18.13;;
19251;SDS011;9760;50.944;5.304;2023-08-30T04:47:25;31.63;;;16.87;;
19251;SDS011;9760;50.944;5.304;2023-08-30T04:49:52;28.80;;;16.47;;
19251;SDS011;9760;50.944;5.304;2023-08-30T04:52:18;29.67;;;17.63;;
19251;SDS011;9760;50.944;5.304;2023-08-30T04:54:44;29.13;;;17.23;;
19251;SDS011;9760;50.944;5.304;2023-08-30T04:57:10;32.63;;;16.47;;
19251;SDS011;9760;50.944;5.304;2023-08-30T04:59:39;30.30;;;16.20;;
19251;SDS011;9760;50.944;5.304;2023-08-30T05:02:06;23.10;;;14.30;;
19251;SDS011;9760;50.944;5.304;2023-08-30T05:04:31;26.20;;;15.53;;
19251;SDS011;9760;50.944;5.304;2023-08-30T05:06:57;29.70;;;15.00;;
19251;SDS011;9760;50.944;5.304;2023-08-30T05:09:23;28.53;;;15.20;;
19251;SDS011;9760;50.944;5.304;2023-08-30T05:11:50;30.33;;;15.77;;
19251;SDS011;9760;50.944;5.304;2023-08-30T05:14:16;26.43;;;14.43;;
19251;SDS011;9760;50.944;5.304;2023-08-30T05:16:42;27.30;;;15.03;;
19251;SDS011;9760;50.944;5.304;2023-08-30T05:19:07;25.70;;;15.90;;
19251;SDS011;9760;50.944;5.304;2023-08-30T05:21:33;24.07;;;14.73;;
19251;SDS011;9760;50.944;5.304;2023-08-30T05:23:59;23.00;;;14.60;;
19251;SDS011;9760;50.944;5.304;2023-08-30T05:26:25;29.30;;;14.83;;
19251;SDS011;9760;50.944;5.304;2023-08-30T05:28:51;27.23;;;14.10;;
19251;SDS011;9760;50.944;5.304;2023-08-30T05:31:17;19.60;;;12.90;;
19251;SDS011;9760;50.944;5.304;2023-08-30T05:33:42;20.40;;;13.47;;
19251;SDS011;9760;50.944;5.304;2023-08-30T05:36:08;21.80;;;13.10;;
19251;SDS011;9760;50.944;5.304;2023-08-30T05:38:33;19.40;;;12.77;;
19251;SDS011;9760;50.944;5.304;2023-08-30T05:40:59;27.53;;;13.10;;
19251;SDS011;9760;50.944;5.304;2023-08-30T05:43:25;19.43;;;12.00;;
19251;SDS011;9760;50.944;5.304;2023-08-30T05:45:50;16.00;;;10.97;;
19251;SDS011;9760;50.944;5.304;2023-08-30T05:48:16;19.87;;;10.33;;
19251;SDS011;9760;50.944;5.304;2023-08-30T05:50:42;17.90;;;10.50;;
19251;SDS011;9760;50.944;5.304;2023-08-30T05:53:07;18.03;;;10.53;;
19251;SDS011;9760;50.944;5.304;2023-08-30T05:55:33;19.10;;;9.57;;
19251;SDS011;9760;50.944;5.304;2023-08-30T05:57:59;18.00;;;9.60;;
19251;SDS011;9760;50.944;5.304;2023-08-30T06:00:25;15.10;;;9.60;;
19251;SDS011;9760;50.944;5.304;2023-08-30T06:02:51;13.27;;;8.63;;
19251;SDS011;9760;50.944;5.304;2023-08-30T06:05:17;15.87;;;8.50;;
19251;SDS011;9760;50.944;5.304;2023-08-30T06:07:43;17.13;;;8.87;;
19251;SDS011;9760;50.944;5.304;2023-08-30T06:10:09;13.90;;;8.53;;
19251;SDS011;9760;50.944;5.304;2023-08-30T06:12:35;15.17;;;8.90;;
19251;SDS011;9760;50.944;5.304;2023-08-30T06:15:01;15.00;;;7.93;;
19251;SDS011;9760;50.944;5.304;2023-08-30T06:17:26;13.43;;;7.93;;
19251;SDS011;9760;50.944;5.304;2023-08-30T06:19:52;16.20;;;9.13;;
19251;SDS011;9760;50.944;5.304;2023-08-30T06:22:17;13.80;;;8.53;;
19251;SDS011;9760;50.944;5.304;2023-08-30T06:24:43;14.20;;;7.80;;
19251;SDS011;9760;50.944;5.304;2023-08-30T06:27:09;14.57;;;6.63;;
19251;SDS011;9760;50.944;5.304;2023-08-30T06:29:34;13.10;;;6.50;;
19251;SDS011;9760;50.944;5.304;2023-08-30T06:32:00;11.23;;;6.37;;
19251;SDS011;9760;50.944;5.304;2023-08-30T06:34:26;9.50;;;5.27;;
19251;SDS011;9760;50.944;5.304;2023-08-30T06:36:51;9.73;;;4.70;;
19251;SDS011;9760;50.944;5.304;2023-08-30T06:39:17;7.03;;;4.40;;
19251;SDS011;9760;50.944;5.304;2023-08-30T06:41:43;8.30;;;4.67;;
19251;SDS011;9760;50.944;5.304;2023-08-30T06:44:09;10.80;;;4.27;;
19251;SDS011;9760;50.944;5.304;2023-08-30T06:46:35;7.90;;;4.33;;
19251;SDS011;9760;50.944;5.304;2023-08-30T06:49:02;7.63;;;3.93;;
19251;SDS011;9760;50.944;5.304;2023-08-30T06:51:28;5.83;;;3.77;;
19251;SDS011;9760;50.944;5.304;2023-08-30T06:53:54;6.13;;;3.50;;
19251;SDS011;9760;50.944;5.304;2023-08-30T06:56:22;6.43;;;4.00;;
19251;SDS011;9760;50.944;5.304;2023-08-30T06:58:48;4.80;;;3.23;;
19251;SDS011;9760;50.944;5.304;2023-08-30T07:01:13;8.10;;;3.40;;
19251;SDS011;9760;50.944;5.304;2023-08-30T07:03:39;7.57;;;3.27;;
19251;SDS011;9760;50.944;5.304;2023-08-30T07:06:05;5.07;;;2.90;;
19251;SDS011;9760;50.944;5.304;2023-08-30T07:08:31;5.90;;;2.73;;
19251;SDS011;9760;50.944;5.304;2023-08-30T07:10:57;6.13;;;3.50;;
19251;SDS011;9760;50.944;5.304;2023-08-30T07:13:23;5.43;;;3.10;;
19251;SDS011;9760;50.944;5.304;2023-08-30T07:15:49;6.67;;;3.20;;
19251;SDS011;9760;50.944;5.304;2023-08-30T07:18:14;6.60;;;2.80;;
19251;SDS011;9760;50.944;5.304;2023-08-30T07:20:40;8.53;;;3.13;;
19251;SDS011;9760;50.944;5.304;2023-08-30T07:23:06;6.37;;;2.80;;
19251;SDS011;9760;50.944;5.304;2023-08-30T07:25:31;5.87;;;3.20;;
19251;SDS011;9760;50.944;5.304;2023-08-30T07:28:01;4.97;;;2.70;;
19251;SDS011;9760;50.944;5.304;2023-08-30T07:30:28;4.47;;;2.57;;
19251;SDS011;9760;50.944;5.304;2023-08-30T07:32:54;5.70;;;2.80;;
19251;SDS011;9760;50.944;5.304;2023-08-30T07:35:20;10.57;;;3.27;;
19251;SDS011;9760;50.944;5.304;2023-08-30T07:37:46;5.57;;;2.73;;
19251;SDS011;9760;50.944;5.304;2023-08-30T07:40:11;9.10;;;2.70;;
19251;SDS011;9760;50.944;5.304;2023-08-30T07:42:37;7.30;;;2.87;;
19251;SDS011;9760;50.944;5.304;2023-08-30T07:45:03;7.03;;;3.37;;
19251;SDS011;9760;50.944;5.304;2023-08-30T07:47:29;4.90;;;3.57;;
19251;SDS011;9760;50.944;5.304;2023-08-30T07:49:55;4.87;;;3.00;;
19251;SDS011;9760;50.944;5.304;2023-08-30T07:52:21;7.27;;;3.30;;
19251;SDS011;9760;50.944;5.304;2023-08-30T07:54:46;6.17;;;3.30;;
19251;SDS011;9760;50.944;5.304;2023-08-30T07:57:12;7.20;;;4.10;;
19251;SDS011;9760;50.944;5.304;2023-08-30T07:59:38;10.80;;;3.43;;
19251;SDS011;9760;50.944;5.304;2023-08-30T08:02:04;8.83;;;3.73;;
19251;SDS011;9760;50.944;5.304;2023-08-30T08:04:34;9.03;;;3.50;;
19251;SDS011;9760;50.944;5.304;2023-08-30T08:07:00;9.50;;;4.10;;
19251;SDS011;9760;50.944;5.304;2023-08-30T08:09:27;8.53;;;3.67;;
19251;SDS011;9760;50.944;5.304;2023-08-30T08:11:53;13.23;;;4.73;;
19251;SDS011;9760;50.944;5.304;2023-08-30T08:14:19;10.23;;;4.70;;
19251;SDS011;9760;50.944;5.304;2023-08-30T08:16:44;9.03;;;4.53;;
19251;SDS011;9760;50.944;5.304;2023-08-30T08:19:10;10.07;;;5.10;;
19251;SDS011;9760;50.944;5.304;2023-08-30T08:21:37;12.73;;;5.37;;
19251;SDS011;9760;50.944;5.304;2023-08-30T08:24:03;13.40;;;6.37;;
19251;SDS011;9760;50.944;5.304;2023-08-30T08:26:29;8.73;;;5.37;;
19251;SDS011;9760;50.944;5.304;2023-08-30T08:28:54;11.10;;;5.03;;
19251;SDS011;9760;50.944;5.304;2023-08-30T08:31:20;9.23;;;5.37;;
19251;SDS011;9760;50.944;5.304;2023-08-30T08:33:46;13.27;;;5.50;;
19251;SDS011;9760;50.944;5.304;2023-08-30T08:36:14;12.83;;;6.33;;
19251;SDS011;9760;50.944;5.304;2023-08-30T08:38:40;10.13;;;6.20;;
19251;SDS011;9760;50.944;5.304;2023-08-30T08:41:06;13.67;;;7.10;;
19251;SDS011;9760;50.944;5.304;2023-08-30T08:43:33;13.73;;;6.87;;
19251;SDS011;9760;50.944;5.304;2023-08-30T08:46:02;11.83;;;6.67;;
19251;SDS011;9760;50.944;5.304;2023-08-30T08:48:28;15.10;;;8.07;;
19251;SDS011;9760;50.944;5.304;2023-08-30T08:50:56;14.73;;;7.10;;
19251;SDS011;9760;50.944;5.304;2023-08-30T08:53:22;14.50;;;7.03;;
19251;SDS011;9760;50.944;5.304;2023-08-30T08:55:49;17.50;;;8.27;;
19251;SDS011;9760;50.944;5.304;2023-08-30T08:58:15;13.03;;;7.33;;
19251;SDS011;9760;50.944;5.304;2023-08-30T09:00:44;14.37;;;7.33;;
19251;SDS011;9760;50.944;5.304;2023-08-30T09:03:10;12.17;;;7.30;;
19251;SDS011;9760;50.944;5.304;2023-08-30T09:05:39;17.70;;;7.60;;
19251;SDS011;9760;50.944;5.304;2023-08-30T09:08:06;16.43;;;8.13;;
19251;SDS011;9760;50.944;5.304;2023-08-30T09:10:34;12.87;;;7.57;;
19251;SDS011;9760;50.944;5.304;2023-08-30T09:13:01;12.73;;;7.50;;
19251;SDS011;9760;50.944;5.304;2023-08-30T09:15:33;13.33;;;7.33;;
19251;SDS011;9760;50.944;5.304;2023-08-30T09:17:59;16.67;;;7.77;;
19251;SDS011;9760;50.944;5.304;2023-08-30T09:20:25;14.77;;;7.63;;
19251;SDS011;9760;50.944;5.304;2023-08-30T09:22:51;13.20;;;7.23;;
19251;SDS011;9760;50.944;5.304;2023-08-30T09:25:23;13.13;;;8.10;;
19251;SDS011;9760;50.944;5.304;2023-08-30T09:27:50;11.40;;;7.37;;
19251;SDS011;9760;50.944;5.304;2023-08-30T09:30:22;10.07;;;6.40;;
19251;SDS011;9760;50.944;5.304;2023-08-30T09:32:48;13.47;;;7.20;;
19251;SDS011;9760;50.944;5.304;2023-08-30T09:35:14;9.40;;;6.50;;
19251;SDS011;9760;50.944;5.304;2023-08-30T09:37:39;13.47;;;7.00;;
19251;SDS011;9760;50.944;5.304;2023-08-30T09:40:07;12.50;;;6.80;;
19251;SDS011;9760;50.944;5.304;2023-08-30T09:42:33;15.80;;;6.80;;
19251;SDS011;9760;50.944;5.304;2023-08-30T09:45:00;11.40;;;6.80;;
19251;SDS011;9760;50.944;5.304;2023-08-30T09:47:26;9.37;;;6.53;;
19251;SDS011;9760;50.944;5.304;2023-08-30T09:49:54;11.40;;;5.97;;
19251;SDS011;9760;50.944;5.304;2023-08-30T09:52:20;10.17;;;6.40;;
19251;SDS011;9760;50.944;5.304;2023-08-30T09:54:50;8.43;;;6.00;;
19251;SDS011;9760;50.944;5.304;2023-08-30T09:57:16;8.70;;;6.40;;
19251;SDS011;9760;50.944;5.304;2023-08-30T09:59:43;12.17;;;6.20;;
19251;SDS011;9760;50.944;5.304;2023-08-30T10:02:10;13.30;;;6.73;;
19251;SDS011;9760;50.944;5.304;2023-08-30T10:04:37;8.73;;;5.43;;
19251;SDS011;9760;50.944;5.304;2023-08-30T10:07:06;6.93;;;5.00;;
19251;SDS011;9760;50.944;5.304;2023-08-30T10:09:32;6.37;;;4.83;;
19251;SDS011;9760;50.944;5.304;2023-08-30T10:11:58;7.20;;;5.07;;
19251;SDS011;9760;50.944;5.304;2023-08-30T10:14:26;5.80;;;4.97;;
19251;SDS011;9760;50.944;5.304;2023-08-30T10:16:54;7.93;;;4.27;;
19251;SDS011;9760;50.944;5.304;2023-08-30T10:19:28;5.83;;;4.50;;
19251;SDS011;9760;50.944;5.304;2023-08-30T10:22:00;6.37;;;4.40;;
19251;SDS011;9760;50.944;5.304;2023-08-30T10:24:31;5.83;;;4.20;;
19251;SDS011;9760;50.944;5.304;2023-08-30T10:27:00;5.57;;;3.60;;
19251;SDS011;9760;50.944;5.304;2023-08-30T10:29:28;6.47;;;4.10;;
19251;SDS011;9760;50.944;5.304;2023-08-30T10:31:55;7.90;;;4.13;;
19251;SDS011;9760;50.944;5.304;2023-08-30T10:34:31;5.30;;;3.97;;
19251;SDS011;9760;50.944;5.304;2023-08-30T10:36:59;5.53;;;3.83;;
19251;SDS011;9760;50.944;5.304;2023-08-30T10:39:37;5.20;;;4.20;;
19251;SDS011;9760;50.944;5.304;2023-08-30T10:42:11;5.93;;;3.70;;
19251;SDS011;9760;50.944;5.304;2023-08-30T10:45:00;4.27;;;3.40;;
19251;SDS011;9760;50.944;5.304;2023-08-30T10:47:28;6.70;;;3.83;;
19251;SDS011;9760;50.944;5.304;2023-08-30T10:49:55;5.23;;;3.93;;
19251;SDS011;9760;50.944;5.304;2023-08-30T10:52:21;6.33;;;3.27;;
19251;SDS011;9760;50.944;5.304;2023-08-30T10:54:47;6.17;;;3.73;;
19251;SDS011;9760;50.944;5.304;2023-08-30T10:57:20;5.80;;;3.63;;
19251;SDS011;9760;50.944;5.304;2023-08-30T11:02:34;5.10;;;3.50;;
19251;SDS011;9760;50.944;5.304;2023-08-30T11:05:02;3.97;;;3.20;;
19251;SDS011;9760;50.944;5.304;2023-08-30T11:07:30;5.87;;;3.00;;
19251;SDS011;9760;50.944;5.304;2023-08-30T11:09:56;4.50;;;3.30;;
19251;SDS011;9760;50.944;5.304;2023-08-30T11:12:22;5.33;;;2.77;;
19251;SDS011;9760;50.944;5.304;2023-08-30T11:14:56;4.87;;;3.20;;
19251;SDS011;9760;50.944;5.304;2023-08-30T11:17:22;5.20;;;3.13;;
19251;SDS011;9760;50.944;5.304;2023-08-30T11:19:57;3.63;;;3.17;;
19251;SDS011;9760;50.944;5.304;2023-08-30T11:22:23;3.83;;;3.37;;
19251;SDS011;9760;50.944;5.304;2023-08-30T11:24:50;4.60;;;2.83;;
19251;SDS011;9760;50.944;5.304;2023-08-30T11:27:19;3.80;;;2.80;;
19251;SDS011;9760;50.944;5.304;2023-08-30T11:29:45;3.33;;;2.70;;
19251;SDS011;9760;50.944;5.304;2023-08-30T11:32:11;3.63;;;2.83;;
19251;SDS011;9760;50.944;5.304;2023-08-30T11:34:36;5.43;;;3.30;;
19251;SDS011;9760;50.944;5.304;2023-08-30T11:37:02;4.67;;;3.30;;
19251;SDS011;9760;50.944;5.304;2023-08-30T11:39:28;5.13;;;3.10;;
19251;SDS011;9760;50.944;5.304;2023-08-30T11:41:54;5.40;;;3.40;;
19251;SDS011;9760;50.944;5.304;2023-08-30T11:44:20;6.17;;;3.77;;
19251;SDS011;9760;50.944;5.304;2023-08-30T11:46:48;5.67;;;4.00;;
19251;SDS011;9760;50.944;5.304;2023-08-30T11:49:17;8.00;;;4.87;;
19251;SDS011;9760;50.944;5.304;2023-08-30T11:51:43;5.27;;;4.13;;
19251;SDS011;9760;50.944;5.304;2023-08-30T11:54:09;5.30;;;3.90;;
19251;SDS011;9760;50.944;5.304;2023-08-30T11:56:35;5.47;;;4.20;;
19251;SDS011;9760;50.944;5.304;2023-08-30T11:59:01;8.37;;;4.60;;
19251;SDS011;9760;50.944;5.304;2023-08-30T12:01:29;7.53;;;4.23;;
19251;SDS011;9760;50.944;5.304;2023-08-30T12:03:55;5.23;;;4.27;;
19251;SDS011;9760;50.944;5.304;2023-08-30T12:06:22;7.93;;;4.57;;
19251;SDS011;9760;50.944;5.304;2023-08-30T12:08:48;7.80;;;3.60;;
19251;SDS011;9760;50.944;5.304;2023-08-30T12:11:22;8.20;;;3.80;;
19251;SDS011;9760;50.944;5.304;2023-08-30T12:13:47;8.13;;;3.97;;
19251;SDS011;9760;50.944;5.304;2023-08-30T12:16:16;5.70;;;3.40;;
19251;SDS011;9760;50.944;5.304;2023-08-30T12:18:43;6.20;;;3.70;;
19251;SDS011;9760;50.944;5.304;2023-08-30T12:21:09;6.03;;;4.10;;
19251;SDS011;9760;50.944;5.304;2023-08-30T12:23:34;6.83;;;3.97;;
19251;SDS011;9760;50.944;5.304;2023-08-30T12:26:01;6.20;;;4.40;;
19251;SDS011;9760;50.944;5.304;2023-08-30T12:28:29;8.10;;;4.13;;
19251;SDS011;9760;50.944;5.304;2023-08-30T12:30:56;6.00;;;3.60;;
19251;SDS011;9760;50.944;5.304;2023-08-30T12:33:23;5.70;;;3.93;;
19251;SDS011;9760;50.944;5.304;2023-08-30T12:35:53;5.53;;;3.67;;
19251;SDS011;9760;50.944;5.304;2023-08-30T12:38:19;6.27;;;4.03;;
19251;SDS011;9760;50.944;5.304;2023-08-30T12:40:45;4.30;;;3.40;;
19251;SDS011;9760;50.944;5.304;2023-08-30T12:43:12;7.23;;;3.70;;
19251;SDS011;9760;50.944;5.304;2023-08-30T12:45:38;6.37;;;3.83;;
19251;SDS011;9760;50.944;5.304;2023-08-30T12:48:05;5.30;;;3.50;;
19251;SDS011;9760;50.944;5.304;2023-08-30T12:50:31;7.13;;;3.90;;
19251;SDS011;9760;50.944;5.304;2023-08-30T12:52:57;5.73;;;3.50;;
19251;SDS011;9760;50.944;5.304;2023-08-30T12:55:23;5.10;;;3.50;;
19251;SDS011;9760;50.944;5.304;2023-08-30T12:57:48;5.83;;;3.63;;
19251;SDS011;9760;50.944;5.304;2023-08-30T13:00:14;7.17;;;3.80;;
19251;SDS011;9760;50.944;5.304;2023-08-30T13:02:40;8.27;;;4.27;;
19251;SDS011;9760;50.944;5.304;2023-08-30T13:05:05;7.47;;;4.30;;
19251;SDS011;9760;50.944;5.304;2023-08-30T13:07:31;6.87;;;4.10;;
19251;SDS011;9760;50.944;5.304;2023-08-30T13:10:00;6.53;;;4.13;;
19251;SDS011;9760;50.944;5.304;2023-08-30T13:12:25;7.27;;;5.20;;
19251;SDS011;9760;50.944;5.304;2023-08-30T13:14:53;13.57;;;7.23;;
19251;SDS011;9760;50.944;5.304;2023-08-30T13:17:19;12.83;;;6.67;;
19251;SDS011;9760;50.944;5.304;2023-08-30T13:19:45;9.77;;;5.43;;
19251;SDS011;9760;50.944;5.304;2023-08-30T13:22:11;8.50;;;5.37;;
19251;SDS011;9760;50.944;5.304;2023-08-30T13:24:37;8.70;;;5.13;;
19251;SDS011;9760;50.944;5.304;2023-08-30T13:27:02;11.17;;;4.97;;
19251;SDS011;9760;50.944;5.304;2023-08-30T13:29:29;12.77;;;4.30;;
19251;SDS011;9760;50.944;5.304;2023-08-30T13:31:55;12.07;;;4.50;;
19251;SDS011;9760;50.944;5.304;2023-08-30T13:34:21;6.80;;;4.20;;
19251;SDS011;9760;50.944;5.304;2023-08-30T13:36:46;16.43;;;5.13;;
19251;SDS011;9760;50.944;5.304;2023-08-30T13:39:12;11.33;;;4.30;;
19251;SDS011;9760;50.944;5.304;2023-08-30T13:41:38;10.17;;;3.60;;
19251;SDS011;9760;50.944;5.304;2023-08-30T13:44:03;10.33;;;4.37;;
19251;SDS011;9760;50.944;5.304;2023-08-30T13:46:30;12.40;;;3.37;;
19251;SDS011;9760;50.944;5.304;2023-08-30T13:48:56;11.10;;;3.60;;
19251;SDS011;9760;50.944;5.304;2023-08-30T13:51:22;11.50;;;3.40;;
19251;SDS011;9760;50.944;5.304;2023-08-30T13:53:49;9.70;;;3.70;;
19251;SDS011;9760;50.944;5.304;2023-08-30T13:56:15;10.57;;;3.17;;
19251;SDS011;9760;50.944;5.304;2023-08-30T13:58:41;9.57;;;2.40;;
19251;SDS011;9760;50.944;5.304;2023-08-30T14:01:07;16.13;;;2.30;;
19251;SDS011;9760;50.944;5.304;2023-08-30T14:03:33;6.43;;;2.27;;
19251;SDS011;9760;50.944;5.304;2023-08-30T14:05:58;7.37;;;2.23;;
19251;SDS011;9760;50.944;5.304;2023-08-30T14:08:24;5.20;;;1.63;;
19251;SDS011;9760;50.944;5.304;2023-08-30T14:10:50;9.43;;;2.20;;
19251;SDS011;9760;50.944;5.304;2023-08-30T14:13:16;10.87;;;2.43;;
19251;SDS011;9760;50.944;5.304;2023-08-30T14:15:41;7.83;;;1.97;;
19251;SDS011;9760;50.944;5.304;2023-08-30T14:18:07;11.23;;;2.30;;
19251;SDS011;9760;50.944;5.304;2023-08-30T14:20:33;7.23;;;1.70;;
19251;SDS011;9760;50.944;5.304;2023-08-30T14:22:59;8.93;;;2.03;;
19251;SDS011;9760;50.944;5.304;2023-08-30T14:25:25;10.67;;;1.93;;
19251;SDS011;9760;50.944;5.304;2023-08-30T14:27:51;7.83;;;1.90;;
19251;SDS011;9760;50.944;5.304;2023-08-30T14:30:16;6.77;;;2.00;;
19251;SDS011;9760;50.944;5.304;2023-08-30T14:32:43;7.50;;;2.10;;
19251;SDS011;9760;50.944;5.304;2023-08-30T14:35:09;5.87;;;1.83;;
19251;SDS011;9760;50.944;5.304;2023-08-30T14:37:36;8.10;;;2.00;;
19251;SDS011;9760;50.944;5.304;2023-08-30T14:40:03;10.03;;;1.97;;
19251;SDS011;9760;50.944;5.304;2023-08-30T14:42:29;7.63;;;2.00;;
19251;SDS011;9760;50.944;5.304;2023-08-30T14:44:55;8.03;;;1.60;;
19251;SDS011;9760;50.944;5.304;2023-08-30T14:47:21;10.00;;;2.13;;
19251;SDS011;9760;50.944;5.304;2023-08-30T14:49:46;11.37;;;1.97;;
19251;SDS011;9760;50.944;5.304;2023-08-30T14:52:13;8.77;;;1.70;;
19251;SDS011;9760;50.944;5.304;2023-08-30T14:54:39;6.03;;;1.60;;